sensor_id;sensor_type;location;lat;lon;timestamp;P1;durP1;ratioP1;P2;durP2;ratioP2
13432;SDS011;6789;47.678;9.158;2024-02-21T00:04:12;7.50;;;2.57;;
13432;SDS011;6789;47.678;9.158;2024-02-21T00:09:04;7.83;;;2.47;;
13432;SDS011;6789;47.678;9.158;2024-02-21T00:13:56;7.70;;;2.50;;
13432;SDS011;6789;47.678;9.158;2024-02-21T00:18:47;9.07;;;2.80;;
13432;SDS011;6789;47.678;9.158;2024-02-21T00:23:40;9.10;;;3.83;;
13432;SDS011;6789;47.678;9.158;2024-02-21T00:28:32;8.80;;;3.07;;
13432;SDS011;6789;47.678;9.158;2024-02-21T00:33:24;6.30;;;2.93;;
13432;SDS011;6789;47.678;9.158;2024-02-21T00:38:16;8.47;;;2.90;;
13432;SDS011;6789;47.678;9.158;2024-02-21T00:43:08;9.13;;;3.23;;
13432;SDS011;6789;47.678;9.158;2024-02-21T00:47:59;8.53;;;3.40;;
13432;SDS011;6789;47.678;9.158;2024-02-21T00:52:51;8.17;;;2.80;;
13432;SDS011;6789;47.678;9.158;2024-02-21T00:57:43;7.37;;;2.50;;
13432;SDS011;6789;47.678;9.158;2024-02-21T01:02:35;9.47;;;3.20;;
13432;SDS011;6789;47.678;9.158;2024-02-21T01:07:27;10.37;;;3.23;;
13432;SDS011;6789;47.678;9.158;2024-02-21T01:12:18;6.23;;;2.70;;
13432;SDS011;6789;47.678;9.158;2024-02-21T01:17:10;6.87;;;2.70;;
13432;SDS011;6789;47.678;9.158;2024-02-21T01:22:02;8.63;;;2.73;;
13432;SDS011;6789;47.678;9.158;2024-02-21T01:26:54;6.77;;;2.93;;
13432;SDS011;6789;47.678;9.158;2024-02-21T01:31:46;6.03;;;3.10;;
13432;SDS011;6789;47.678;9.158;2024-02-21T01:36:38;8.20;;;3.10;;
13432;SDS011;6789;47.678;9.158;2024-02-21T01:41:30;6.30;;;2.67;;
13432;SDS011;6789;47.678;9.158;2024-02-21T01:46:22;9.33;;;3.37;;
13432;SDS011;6789;47.678;9.158;2024-02-21T01:51:19;10.77;;;3.57;;
13432;SDS011;6789;47.678;9.158;2024-02-21T01:56:11;9.07;;;3.33;;
13432;SDS011;6789;47.678;9.158;2024-02-21T02:01:04;9.77;;;3.80;;
13432;SDS011;6789;47.678;9.158;2024-02-21T02:05:56;9.60;;;3.77;;
13432;SDS011;6789;47.678;9.158;2024-02-21T02:10:48;7.57;;;3.40;;
13432;SDS011;6789;47.678;9.158;2024-02-21T02:15:41;13.57;;;3.60;;
13432;SDS011;6789;47.678;9.158;2024-02-21T02:20:37;7.67;;;4.03;;
13432;SDS011;6789;47.678;9.158;2024-02-21T02:25:29;11.87;;;4.07;;
13432;SDS011;6789;47.678;9.158;2024-02-21T02:30:21;9.80;;;3.60;;
13432;SDS011;6789;47.678;9.158;2024-02-21T02:35:13;10.33;;;3.60;;
13432;SDS011;6789;47.678;9.158;2024-02-21T02:40:06;9.47;;;3.73;;
13432;SDS011;6789;47.678;9.158;2024-02-21T02:44:58;10.93;;;3.77;;
13432;SDS011;6789;47.678;9.158;2024-02-21T02:49:50;9.23;;;3.97;;
13432;SDS011;6789;47.678;9.158;2024-02-21T02:54:42;9.97;;;4.10;;
13432;SDS011;6789;47.678;9.158;2024-02-21T02:59:34;9.50;;;4.07;;
13432;SDS011;6789;47.678;9.158;2024-02-21T03:04:26;7.83;;;3.73;;
13432;SDS011;6789;47.678;9.158;2024-02-21T03:09:18;9.20;;;4.60;;
13432;SDS011;6789;47.678;9.158;2024-02-21T03:14:10;8.63;;;4.03;;
13432;SDS011;6789;47.678;9.158;2024-02-21T03:19:02;10.03;;;3.90;;
13432;SDS011;6789;47.678;9.158;2024-02-21T03:23:54;6.97;;;4.00;;
13432;SDS011;6789;47.678;9.158;2024-02-21T03:28:46;14.03;;;4.50;;
13432;SDS011;6789;47.678;9.158;2024-02-21T03:33:39;9.07;;;3.90;;
13432;SDS011;6789;47.678;9.158;2024-02-21T03:38:33;9.40;;;4.37;;
13432;SDS011;6789;47.678;9.158;2024-02-21T03:43:25;8.33;;;4.77;;
13432;SDS011;6789;47.678;9.158;2024-02-21T03:48:16;11.87;;;4.87;;
13432;SDS011;6789;47.678;9.158;2024-02-21T03:53:08;9.70;;;4.80;;
13432;SDS011;6789;47.678;9.158;2024-02-21T03:58:00;9.60;;;4.77;;
13432;SDS011;6789;47.678;9.158;2024-02-21T04:02:52;9.00;;;4.40;;
13432;SDS011;6789;47.678;9.158;2024-02-21T04:07:44;13.23;;;5.40;;
13432;SDS011;6789;47.678;9.158;2024-02-21T04:12:35;11.27;;;5.40;;
13432;SDS011;6789;47.678;9.158;2024-02-21T04:17:29;10.40;;;5.77;;
13432;SDS011;6789;47.678;9.158;2024-02-21T04:22:21;13.87;;;5.73;;
13432;SDS011;6789;47.678;9.158;2024-02-21T04:27:13;17.70;;;6.10;;
13432;SDS011;6789;47.678;9.158;2024-02-21T04:32:05;13.00;;;6.47;;
13432;SDS011;6789;47.678;9.158;2024-02-21T04:36:57;13.30;;;6.17;;
13432;SDS011;6789;47.678;9.158;2024-02-21T04:41:49;13.40;;;6.13;;
13432;SDS011;6789;47.678;9.158;2024-02-21T04:46:44;11.80;;;5.80;;
13432;SDS011;6789;47.678;9.158;2024-02-21T04:51:36;16.80;;;6.50;;
13432;SDS011;6789;47.678;9.158;2024-02-21T04:56:28;10.80;;;6.20;;
13432;SDS011;6789;47.678;9.158;2024-02-21T05:01:19;7.77;;;5.63;;
13432;SDS011;6789;47.678;9.158;2024-02-21T05:06:11;12.00;;;5.67;;
13432;SDS011;6789;47.678;9.158;2024-02-21T05:11:03;10.43;;;5.90;;
13432;SDS011;6789;47.678;9.158;2024-02-21T05:15:55;11.33;;;5.53;;
13432;SDS011;6789;47.678;9.158;2024-02-21T05:20:47;9.30;;;5.90;;
13432;SDS011;6789;47.678;9.158;2024-02-21T05:25:39;17.43;;;5.90;;
13432;SDS011;6789;47.678;9.158;2024-02-21T05:30:30;14.97;;;7.00;;
13432;SDS011;6789;47.678;9.158;2024-02-21T05:35:26;15.60;;;7.13;;
13432;SDS011;6789;47.678;9.158;2024-02-21T05:40:19;16.03;;;6.97;;
13432;SDS011;6789;47.678;9.158;2024-02-21T05:45:11;12.20;;;5.80;;
13432;SDS011;6789;47.678;9.158;2024-02-21T05:50:04;10.70;;;5.10;;
13432;SDS011;6789;47.678;9.158;2024-02-21T05:54:56;9.03;;;5.20;;
13432;SDS011;6789;47.678;9.158;2024-02-21T05:59:48;8.67;;;5.67;;
13432;SDS011;6789;47.678;9.158;2024-02-21T06:04:40;11.70;;;6.53;;
13432;SDS011;6789;47.678;9.158;2024-02-21T06:09:34;12.83;;;5.97;;
13432;SDS011;6789;47.678;9.158;2024-02-21T06:14:25;11.77;;;5.07;;
13432;SDS011;6789;47.678;9.158;2024-02-21T06:19:17;9.83;;;5.70;;
13432;SDS011;6789;47.678;9.158;2024-02-21T06:24:09;10.00;;;5.17;;
13432;SDS011;6789;47.678;9.158;2024-02-21T06:29:03;10.50;;;5.43;;
13432;SDS011;6789;47.678;9.158;2024-02-21T06:33:55;11.03;;;5.77;;
13432;SDS011;6789;47.678;9.158;2024-02-21T06:38:47;17.33;;;6.37;;
13432;SDS011;6789;47.678;9.158;2024-02-21T06:43:39;14.63;;;6.70;;
13432;SDS011;6789;47.678;9.158;2024-02-21T06:48:30;14.20;;;6.10;;
13432;SDS011;6789;47.678;9.158;2024-02-21T06:53:22;13.50;;;6.87;;
13432;SDS011;6789;47.678;9.158;2024-02-21T06:58:14;11.03;;;5.93;;
13432;SDS011;6789;47.678;9.158;2024-02-21T07:03:08;13.40;;;6.53;;
13432;SDS011;6789;47.678;9.158;2024-02-21T07:07:59;11.03;;;6.23;;
13432;SDS011;6789;47.678;9.158;2024-02-21T07:12:52;12.37;;;7.00;;
13432;SDS011;6789;47.678;9.158;2024-02-21T07:17:43;9.73;;;6.07;;
13432;SDS011;6789;47.678;9.158;2024-02-21T07:22:35;12.60;;;6.37;;
13432;SDS011;6789;47.678;9.158;2024-02-21T07:27:27;11.63;;;6.70;;
13432;SDS011;6789;47.678;9.158;2024-02-21T07:32:22;14.13;;;6.57;;
13432;SDS011;6789;47.678;9.158;2024-02-21T07:37:14;14.60;;;7.40;;
13432;SDS011;6789;47.678;9.158;2024-02-21T07:42:05;30.97;;;8.23;;
13432;SDS011;6789;47.678;9.158;2024-02-21T07:46:57;24.60;;;7.13;;
13432;SDS011;6789;47.678;9.158;2024-02-21T07:51:50;12.40;;;6.23;;
13432;SDS011;6789;47.678;9.158;2024-02-21T07:56:41;14.23;;;7.33;;
13432;SDS011;6789;47.678;9.158;2024-02-21T08:01:33;14.27;;;7.13;;
13432;SDS011;6789;47.678;9.158;2024-02-21T08:06:25;11.63;;;7.13;;
13432;SDS011;6789;47.678;9.158;2024-02-21T08:11:17;12.37;;;7.70;;
13432;SDS011;6789;47.678;9.158;2024-02-21T08:16:09;13.27;;;7.87;;
13432;SDS011;6789;47.678;9.158;2024-02-21T08:21:02;11.87;;;6.93;;
13432;SDS011;6789;47.678;9.158;2024-02-21T08:25:55;11.40;;;7.17;;
13432;SDS011;6789;47.678;9.158;2024-02-21T08:30:47;11.13;;;6.63;;
13432;SDS011;6789;47.678;9.158;2024-02-21T08:35:39;16.30;;;7.17;;
13432;SDS011;6789;47.678;9.158;2024-02-21T08:40:31;13.17;;;6.97;;
13432;SDS011;6789;47.678;9.158;2024-02-21T08:45:26;13.97;;;7.20;;
13432;SDS011;6789;47.678;9.158;2024-02-21T08:50:18;9.20;;;5.73;;
13432;SDS011;6789;47.678;9.158;2024-02-21T08:55:19;14.47;;;7.17;;
13432;SDS011;6789;47.678;9.158;2024-02-21T09:00:11;14.80;;;7.07;;
13432;SDS011;6789;47.678;9.158;2024-02-21T09:05:04;13.77;;;6.57;;
13432;SDS011;6789;47.678;9.158;2024-02-21T09:09:56;11.07;;;5.97;;
13432;SDS011;6789;47.678;9.158;2024-02-21T09:14:48;11.97;;;6.33;;
13432;SDS011;6789;47.678;9.158;2024-02-21T09:19:41;9.27;;;5.13;;
13432;SDS011;6789;47.678;9.158;2024-02-21T09:24:33;9.70;;;6.33;;
13432;SDS011;6789;47.678;9.158;2024-02-21T09:29:40;9.63;;;5.13;;
13432;SDS011;6789;47.678;9.158;2024-02-21T09:34:32;9.30;;;4.50;;
13432;SDS011;6789;47.678;9.158;2024-02-21T09:39:24;7.80;;;3.90;;
13432;SDS011;6789;47.678;9.158;2024-02-21T09:44:16;9.30;;;4.50;;
13432;SDS011;6789;47.678;9.158;2024-02-21T09:49:13;6.43;;;3.70;;
13432;SDS011;6789;47.678;9.158;2024-02-21T09:54:17;8.43;;;4.37;;
13432;SDS011;6789;47.678;9.158;2024-02-21T09:59:09;6.20;;;3.50;;
13432;SDS011;6789;47.678;9.158;2024-02-21T10:04:02;6.67;;;3.30;;
13432;SDS011;6789;47.678;9.158;2024-02-21T10:08:56;8.00;;;3.60;;
13432;SDS011;6789;47.678;9.158;2024-02-21T10:13:47;6.47;;;2.73;;
13432;SDS011;6789;47.678;9.158;2024-02-21T10:18:40;6.57;;;2.50;;
13432;SDS011;6789;47.678;9.158;2024-02-21T10:28:40;10.13;;;3.23;;
13432;SDS011;6789;47.678;9.158;2024-02-21T10:33:39;7.13;;;3.70;;
13432;SDS011;6789;47.678;9.158;2024-02-21T10:38:32;3.43;;;2.70;;
13432;SDS011;6789;47.678;9.158;2024-02-21T10:43:25;9.23;;;3.50;;
13432;SDS011;6789;47.678;9.158;2024-02-21T10:48:20;6.77;;;3.33;;
13432;SDS011;6789;47.678;9.158;2024-02-21T10:58:35;6.53;;;2.67;;
13432;SDS011;6789;47.678;9.158;2024-02-21T11:03:27;4.53;;;2.50;;
13432;SDS011;6789;47.678;9.158;2024-02-21T11:08:19;10.33;;;5.67;;
13432;SDS011;6789;47.678;9.158;2024-02-21T11:13:17;8.33;;;2.97;;
13432;SDS011;6789;47.678;9.158;2024-02-21T11:18:09;5.17;;;2.80;;
13432;SDS011;6789;47.678;9.158;2024-02-21T11:23:23;3.53;;;2.67;;
13432;SDS011;6789;47.678;9.158;2024-02-21T11:40:13;3.50;;;2.03;;
13432;SDS011;6789;47.678;9.158;2024-02-21T11:45:21;5.10;;;2.40;;
13432;SDS011;6789;47.678;9.158;2024-02-21T11:50:17;4.67;;;2.33;;
13432;SDS011;6789;47.678;9.158;2024-02-21T11:55:39;4.47;;;2.57;;
13432;SDS011;6789;47.678;9.158;2024-02-21T12:01:05;9.43;;;2.40;;
13432;SDS011;6789;47.678;9.158;2024-02-21T12:06:06;4.43;;;2.27;;
13432;SDS011;6789;47.678;9.158;2024-02-21T12:10:58;5.57;;;2.40;;
13432;SDS011;6789;47.678;9.158;2024-02-21T12:15:50;6.20;;;2.50;;
13432;SDS011;6789;47.678;9.158;2024-02-21T12:20:42;3.53;;;2.20;;
13432;SDS011;6789;47.678;9.158;2024-02-21T12:25:35;6.15;;;2.90;;
13432;SDS011;6789;47.678;9.158;2024-02-21T12:30:27;4.93;;;2.27;;
13432;SDS011;6789;47.678;9.158;2024-02-21T12:35:18;3.75;;;2.08;;
13432;SDS011;6789;47.678;9.158;2024-02-21T12:40:11;4.90;;;2.08;;
13432;SDS011;6789;47.678;9.158;2024-02-21T12:45:04;2.67;;;1.77;;
13432;SDS011;6789;47.678;9.158;2024-02-21T12:49:57;3.22;;;1.92;;
13432;SDS011;6789;47.678;9.158;2024-02-21T12:54:49;2.90;;;2.07;;
13432;SDS011;6789;47.678;9.158;2024-02-21T12:59:42;3.00;;;1.60;;
13432;SDS011;6789;47.678;9.158;2024-02-21T13:04:34;3.55;;;2.10;;
13432;SDS011;6789;47.678;9.158;2024-02-21T13:09:26;4.10;;;2.40;;
13432;SDS011;6789;47.678;9.158;2024-02-21T13:14:18;4.50;;;2.23;;
13432;SDS011;6789;47.678;9.158;2024-02-21T13:19:10;4.65;;;2.63;;
13432;SDS011;6789;47.678;9.158;2024-02-21T13:24:02;6.50;;;3.20;;
13432;SDS011;6789;47.678;9.158;2024-02-21T13:28:54;11.00;;;3.22;;
13432;SDS011;6789;47.678;9.158;2024-02-21T13:33:46;7.53;;;3.65;;
13432;SDS011;6789;47.678;9.158;2024-02-21T13:38:38;6.28;;;3.80;;
13432;SDS011;6789;47.678;9.158;2024-02-21T13:43:30;7.57;;;3.47;;
13432;SDS011;6789;47.678;9.158;2024-02-21T13:48:22;8.17;;;3.20;;
13432;SDS011;6789;47.678;9.158;2024-02-21T13:53:14;7.67;;;3.60;;
13432;SDS011;6789;47.678;9.158;2024-02-21T13:58:06;8.80;;;3.55;;
13432;SDS011;6789;47.678;9.158;2024-02-21T14:02:59;8.50;;;3.77;;
13432;SDS011;6789;47.678;9.158;2024-02-21T14:08:23;7.50;;;3.25;;
13432;SDS011;6789;47.678;9.158;2024-02-21T14:13:15;4.80;;;3.22;;
13432;SDS011;6789;47.678;9.158;2024-02-21T14:18:08;3.93;;;3.33;;
13432;SDS011;6789;47.678;9.158;2024-02-21T14:23:00;4.30;;;3.47;;
13432;SDS011;6789;47.678;9.158;2024-02-21T14:27:52;10.13;;;3.67;;
13432;SDS011;6789;47.678;9.158;2024-02-21T14:32:44;5.70;;;3.30;;
13432;SDS011;6789;47.678;9.158;2024-02-21T14:37:37;14.00;;;3.75;;
13432;SDS011;6789;47.678;9.158;2024-02-21T14:42:29;4.87;;;2.90;;
13432;SDS011;6789;47.678;9.158;2024-02-21T14:47:20;4.73;;;3.60;;
13432;SDS011;6789;47.678;9.158;2024-02-21T14:52:13;9.97;;;3.90;;
13432;SDS011;6789;47.678;9.158;2024-02-21T14:57:04;5.65;;;3.97;;
13432;SDS011;6789;47.678;9.158;2024-02-21T15:01:56;11.10;;;4.10;;
13432;SDS011;6789;47.678;9.158;2024-02-21T15:06:48;7.80;;;3.80;;
13432;SDS011;6789;47.678;9.158;2024-02-21T15:11:40;4.20;;;3.63;;
13432;SDS011;6789;47.678;9.158;2024-02-21T15:16:34;7.13;;;4.27;;
13432;SDS011;6789;47.678;9.158;2024-02-21T15:21:27;7.73;;;3.67;;
13432;SDS011;6789;47.678;9.158;2024-02-21T15:26:19;6.77;;;3.80;;
13432;SDS011;6789;47.678;9.158;2024-02-21T15:31:19;9.87;;;3.70;;
13432;SDS011;6789;47.678;9.158;2024-02-21T15:36:13;7.27;;;3.63;;
13432;SDS011;6789;47.678;9.158;2024-02-21T15:41:05;4.93;;;3.30;;
13432;SDS011;6789;47.678;9.158;2024-02-21T15:45:57;7.97;;;3.70;;
13432;SDS011;6789;47.678;9.158;2024-02-21T15:50:49;6.83;;;3.83;;
13432;SDS011;6789;47.678;9.158;2024-02-21T16:00:51;8.73;;;3.47;;
13432;SDS011;6789;47.678;9.158;2024-02-21T16:11:27;7.23;;;3.90;;
13432;SDS011;6789;47.678;9.158;2024-02-21T16:16:19;6.47;;;3.30;;
13432;SDS011;6789;47.678;9.158;2024-02-21T16:21:11;6.97;;;3.80;;
13432;SDS011;6789;47.678;9.158;2024-02-21T16:26:11;4.57;;;3.33;;
13432;SDS011;6789;47.678;9.158;2024-02-21T16:31:03;9.17;;;3.70;;
13432;SDS011;6789;47.678;9.158;2024-02-21T16:35:54;10.33;;;3.80;;
13432;SDS011;6789;47.678;9.158;2024-02-21T16:40:47;8.43;;;3.50;;
13432;SDS011;6789;47.678;9.158;2024-02-21T16:45:40;6.00;;;3.20;;
13432;SDS011;6789;47.678;9.158;2024-02-21T16:50:32;7.77;;;3.00;;
13432;SDS011;6789;47.678;9.158;2024-02-21T16:55:35;4.20;;;2.57;;
13432;SDS011;6789;47.678;9.158;2024-02-21T17:00:27;17.00;;;2.60;;
13432;SDS011;6789;47.678;9.158;2024-02-21T17:05:19;4.50;;;1.97;;
13432;SDS011;6789;47.678;9.158;2024-02-21T17:10:14;3.53;;;1.80;;
13432;SDS011;6789;47.678;9.158;2024-02-21T17:15:06;3.37;;;2.10;;
13432;SDS011;6789;47.678;9.158;2024-02-21T17:19:58;3.37;;;2.10;;
13432;SDS011;6789;47.678;9.158;2024-02-21T17:24:50;3.13;;;2.37;;
13432;SDS011;6789;47.678;9.158;2024-02-21T17:29:41;3.73;;;2.10;;
13432;SDS011;6789;47.678;9.158;2024-02-21T17:34:33;3.43;;;1.67;;
13432;SDS011;6789;47.678;9.158;2024-02-21T17:39:25;1.97;;;1.53;;
13432;SDS011;6789;47.678;9.158;2024-02-21T17:44:17;5.83;;;2.33;;
13432;SDS011;6789;47.678;9.158;2024-02-21T17:49:09;3.57;;;2.70;;
13432;SDS011;6789;47.678;9.158;2024-02-21T17:54:02;4.47;;;2.60;;
13432;SDS011;6789;47.678;9.158;2024-02-21T17:58:54;4.93;;;2.13;;
13432;SDS011;6789;47.678;9.158;2024-02-21T18:03:46;6.13;;;2.47;;
13432;SDS011;6789;47.678;9.158;2024-02-21T18:08:37;4.53;;;2.60;;
13432;SDS011;6789;47.678;9.158;2024-02-21T18:13:29;3.83;;;2.50;;
13432;SDS011;6789;47.678;9.158;2024-02-21T18:18:22;7.17;;;2.87;;
13432;SDS011;6789;47.678;9.158;2024-02-21T18:23:13;4.03;;;2.50;;
13432;SDS011;6789;47.678;9.158;2024-02-21T18:28:06;3.43;;;2.10;;
13432;SDS011;6789;47.678;9.158;2024-02-21T18:32:58;9.73;;;2.40;;
13432;SDS011;6789;47.678;9.158;2024-02-21T18:37:51;3.47;;;2.27;;
13432;SDS011;6789;47.678;9.158;2024-02-21T18:42:42;3.70;;;2.00;;
13432;SDS011;6789;47.678;9.158;2024-02-21T18:47:34;3.57;;;2.23;;
13432;SDS011;6789;47.678;9.158;2024-02-21T18:52:26;5.50;;;2.27;;
13432;SDS011;6789;47.678;9.158;2024-02-21T18:57:18;4.00;;;2.60;;
13432;SDS011;6789;47.678;9.158;2024-02-21T19:02:10;8.47;;;3.33;;
13432;SDS011;6789;47.678;9.158;2024-02-21T19:07:02;5.17;;;2.60;;
13432;SDS011;6789;47.678;9.158;2024-02-21T19:11:54;4.70;;;2.63;;
13432;SDS011;6789;47.678;9.158;2024-02-21T19:16:46;4.27;;;2.40;;
13432;SDS011;6789;47.678;9.158;2024-02-21T19:21:38;4.47;;;2.10;;
13432;SDS011;6789;47.678;9.158;2024-02-21T19:26:30;3.80;;;2.17;;
13432;SDS011;6789;47.678;9.158;2024-02-21T19:31:22;4.47;;;2.30;;
13432;SDS011;6789;47.678;9.158;2024-02-21T19:36:14;2.93;;;1.83;;
13432;SDS011;6789;47.678;9.158;2024-02-21T19:41:05;2.83;;;1.70;;
13432;SDS011;6789;47.678;9.158;2024-02-21T19:45:58;3.93;;;2.63;;
13432;SDS011;6789;47.678;9.158;2024-02-21T19:50:50;3.83;;;2.63;;
13432;SDS011;6789;47.678;9.158;2024-02-21T19:55:42;6.17;;;2.50;;
13432;SDS011;6789;47.678;9.158;2024-02-21T20:00:34;8.57;;;3.27;;
13432;SDS011;6789;47.678;9.158;2024-02-21T20:05:27;7.40;;;2.80;;
13432;SDS011;6789;47.678;9.158;2024-02-21T20:10:19;4.30;;;2.80;;
13432;SDS011;6789;47.678;9.158;2024-02-21T20:15:11;6.40;;;3.33;;
13432;SDS011;6789;47.678;9.158;2024-02-21T20:20:05;3.43;;;2.40;;
13432;SDS011;6789;47.678;9.158;2024-02-21T20:24:57;4.20;;;2.30;;
13432;SDS011;6789;47.678;9.158;2024-02-21T20:29:49;5.63;;;2.10;;
13432;SDS011;6789;47.678;9.158;2024-02-21T20:34:41;3.20;;;2.10;;
13432;SDS011;6789;47.678;9.158;2024-02-21T20:39:34;2.67;;;2.07;;
13432;SDS011;6789;47.678;9.158;2024-02-21T20:44:26;2.83;;;1.90;;
13432;SDS011;6789;47.678;9.158;2024-02-21T20:49:18;3.53;;;2.03;;
13432;SDS011;6789;47.678;9.158;2024-02-21T20:54:10;3.13;;;1.93;;
13432;SDS011;6789;47.678;9.158;2024-02-21T20:59:02;4.87;;;2.67;;
13432;SDS011;6789;47.678;9.158;2024-02-21T21:03:54;4.23;;;2.03;;
13432;SDS011;6789;47.678;9.158;2024-02-21T21:08:46;5.30;;;2.70;;
13432;SDS011;6789;47.678;9.158;2024-02-21T21:13:38;4.53;;;2.87;;
13432;SDS011;6789;47.678;9.158;2024-02-21T21:18:30;5.17;;;3.13;;
13432;SDS011;6789;47.678;9.158;2024-02-21T21:23:25;7.90;;;2.93;;
13432;SDS011;6789;47.678;9.158;2024-02-21T21:28:18;4.80;;;3.10;;
13432;SDS011;6789;47.678;9.158;2024-02-21T21:33:10;5.23;;;2.57;;
13432;SDS011;6789;47.678;9.158;2024-02-21T21:38:02;5.77;;;3.00;;
13432;SDS011;6789;47.678;9.158;2024-02-21T21:42:55;5.07;;;3.10;;
13432;SDS011;6789;47.678;9.158;2024-02-21T21:47:49;6.33;;;2.70;;
13432;SDS011;6789;47.678;9.158;2024-02-21T21:52:42;5.47;;;3.10;;
13432;SDS011;6789;47.678;9.158;2024-02-21T21:57:34;4.70;;;3.17;;
13432;SDS011;6789;47.678;9.158;2024-02-21T22:02:26;5.70;;;3.10;;
13432;SDS011;6789;47.678;9.158;2024-02-21T22:07:19;7.90;;;3.20;;
13432;SDS011;6789;47.678;9.158;2024-02-21T22:12:18;7.03;;;3.23;;
13432;SDS011;6789;47.678;9.158;2024-02-21T22:17:25;4.83;;;3.10;;
13432;SDS011;6789;47.678;9.158;2024-02-21T22:22:33;8.93;;;3.90;;
13432;SDS011;6789;47.678;9.158;2024-02-21T22:27:25;7.07;;;3.20;;
13432;SDS011;6789;47.678;9.158;2024-02-21T22:32:18;5.20;;;3.67;;
13432;SDS011;6789;47.678;9.158;2024-02-21T22:37:24;7.30;;;3.40;;
13432;SDS011;6789;47.678;9.158;2024-02-21T22:42:31;6.47;;;3.33;;
13432;SDS011;6789;47.678;9.158;2024-02-21T22:47:36;6.13;;;3.67;;
13432;SDS011;6789;47.678;9.158;2024-02-21T22:53:04;5.83;;;3.60;;
13432;SDS011;6789;47.678;9.158;2024-02-21T22:58:26;6.07;;;3.53;;
13432;SDS011;6789;47.678;9.158;2024-02-21T23:03:32;5.67;;;3.23;;
13432;SDS011;6789;47.678;9.158;2024-02-21T23:08:59;4.37;;;3.40;;
13432;SDS011;6789;47.678;9.158;2024-02-21T23:13:53;4.43;;;3.03;;
13432;SDS011;6789;47.678;9.158;2024-02-21T23:18:45;6.97;;;3.60;;
13432;SDS011;6789;47.678;9.158;2024-02-21T23:23:37;6.13;;;3.13;;
13432;SDS011;6789;47.678;9.158;2024-02-21T23:28:30;3.80;;;2.67;;
13432;SDS011;6789;47.678;9.158;2024-02-21T23:33:23;3.57;;;2.00;;
13432;SDS011;6789;47.678;9.158;2024-02-21T23:38:14;3.03;;;2.10;;
13432;SDS011;6789;47.678;9.158;2024-02-21T23:43:06;4.17;;;2.00;;
13432;SDS011;6789;47.678;9.158;2024-02-21T23:47:58;3.70;;;1.80;;
13432;SDS011;6789;47.678;9.158;2024-02-21T23:52:50;1.87;;;1.67;;
13432;SDS011;6789;47.678;9.158;2024-02-21T23:57:42;4.17;;;2.20;;
